sensor_id;sensor_type;location;lat;lon;timestamp;P1;durP1;ratioP1;P2;durP2;ratioP2
22614;SDS011;11474;50.790;0.298;2023-03-23T00:01:12;27.63;;;4.97;;
22614;SDS011;11474;50.790;0.298;2023-03-23T00:03:41;23.60;;;4.47;;
22614;SDS011;11474;50.790;0.298;2023-03-23T00:06:08;25.57;;;5.13;;
22614;SDS011;11474;50.790;0.298;2023-03-23T00:08:38;39.50;;;5.43;;
22614;SDS011;11474;50.790;0.298;2023-03-23T00:11:13;33.20;;;5.55;;
22614;SDS011;11474;50.790;0.298;2023-03-23T00:13:40;31.65;;;6.25;;
22614;SDS011;11474;50.790;0.298;2023-03-23T00:16:08;28.75;;;4.63;;
22614;SDS011;11474;50.790;0.298;2023-03-23T00:18:42;39.33;;;5.57;;
22614;SDS011;11474;50.790;0.298;2023-03-23T00:21:09;33.83;;;5.43;;
22614;SDS011;11474;50.790;0.298;2023-03-23T00:23:35;31.70;;;5.65;;
22614;SDS011;11474;50.790;0.298;2023-03-23T00:26:01;31.90;;;5.20;;
22614;SDS011;11474;50.790;0.298;2023-03-23T00:28:27;29.90;;;5.85;;
22614;SDS011;11474;50.790;0.298;2023-03-23T00:30:54;41.67;;;6.72;;
22614;SDS011;11474;50.790;0.298;2023-03-23T00:33:21;34.30;;;6.05;;
22614;SDS011;11474;50.790;0.298;2023-03-23T00:35:47;42.42;;;6.70;;
22614;SDS011;11474;50.790;0.298;2023-03-23T00:38:13;31.85;;;6.00;;
22614;SDS011;11474;50.790;0.298;2023-03-23T00:40:39;30.67;;;6.07;;
22614;SDS011;11474;50.790;0.298;2023-03-23T00:43:06;41.42;;;6.07;;
22614;SDS011;11474;50.790;0.298;2023-03-23T00:45:33;35.58;;;5.78;;
22614;SDS011;11474;50.790;0.298;2023-03-23T00:48:00;39.30;;;5.90;;
22614;SDS011;11474;50.790;0.298;2023-03-23T00:50:29;41.45;;;7.15;;
22614;SDS011;11474;50.790;0.298;2023-03-23T00:52:55;44.97;;;6.55;;
22614;SDS011;11474;50.790;0.298;2023-03-23T00:55:21;36.25;;;6.13;;
22614;SDS011;11474;50.790;0.298;2023-03-23T00:57:48;37.50;;;7.03;;
22614;SDS011;11474;50.790;0.298;2023-03-23T01:00:15;44.70;;;7.22;;
22614;SDS011;11474;50.790;0.298;2023-03-23T01:02:41;37.50;;;6.63;;
22614;SDS011;11474;50.790;0.298;2023-03-23T01:05:09;44.30;;;6.78;;
22614;SDS011;11474;50.790;0.298;2023-03-23T01:07:36;40.42;;;7.03;;
22614;SDS011;11474;50.790;0.298;2023-03-23T01:10:03;38.20;;;6.97;;
22614;SDS011;11474;50.790;0.298;2023-03-23T01:12:29;32.72;;;6.03;;
22614;SDS011;11474;50.790;0.298;2023-03-23T01:14:55;40.08;;;6.70;;
22614;SDS011;11474;50.790;0.298;2023-03-23T01:17:21;43.25;;;7.38;;
22614;SDS011;11474;50.790;0.298;2023-03-23T01:19:47;40.05;;;6.65;;
22614;SDS011;11474;50.790;0.298;2023-03-23T01:22:13;39.55;;;6.63;;
22614;SDS011;11474;50.790;0.298;2023-03-23T01:24:39;36.47;;;6.65;;
22614;SDS011;11474;50.790;0.298;2023-03-23T01:27:06;33.95;;;6.47;;
22614;SDS011;11474;50.790;0.298;2023-03-23T01:29:35;44.95;;;6.85;;
22614;SDS011;11474;50.790;0.298;2023-03-23T01:32:02;40.10;;;6.78;;
22614;SDS011;11474;50.790;0.298;2023-03-23T01:34:28;49.58;;;7.32;;
22614;SDS011;11474;50.790;0.298;2023-03-23T01:36:54;36.75;;;6.05;;
22614;SDS011;11474;50.790;0.298;2023-03-23T01:39:20;40.10;;;6.67;;
22614;SDS011;11474;50.790;0.298;2023-03-23T01:41:47;41.67;;;6.25;;
22614;SDS011;11474;50.790;0.298;2023-03-23T01:46:42;44.92;;;7.32;;
22614;SDS011;11474;50.790;0.298;2023-03-23T01:49:12;44.00;;;7.13;;
22614;SDS011;11474;50.790;0.298;2023-03-23T01:51:43;43.50;;;6.78;;
22614;SDS011;11474;50.790;0.298;2023-03-23T01:54:13;46.10;;;7.27;;
22614;SDS011;11474;50.790;0.298;2023-03-23T01:56:51;36.60;;;7.43;;
22614;SDS011;11474;50.790;0.298;2023-03-23T01:59:18;36.47;;;6.20;;
22614;SDS011;11474;50.790;0.298;2023-03-23T02:01:45;44.15;;;6.72;;
22614;SDS011;11474;50.790;0.298;2023-03-23T02:04:12;48.80;;;7.50;;
22614;SDS011;11474;50.790;0.298;2023-03-23T02:06:39;41.63;;;7.40;;
22614;SDS011;11474;50.790;0.298;2023-03-23T02:09:05;46.50;;;6.60;;
22614;SDS011;11474;50.790;0.298;2023-03-23T02:11:32;39.33;;;6.97;;
22614;SDS011;11474;50.790;0.298;2023-03-23T02:13:58;59.33;;;9.18;;
22614;SDS011;11474;50.790;0.298;2023-03-23T02:18:56;52.33;;;7.13;;
22614;SDS011;11474;50.790;0.298;2023-03-23T02:24:07;52.80;;;8.15;;
22614;SDS011;11474;50.790;0.298;2023-03-23T02:34:08;54.22;;;7.65;;
22614;SDS011;11474;50.790;0.298;2023-03-23T02:41:30;44.33;;;6.80;;
22614;SDS011;11474;50.790;0.298;2023-03-23T02:43:56;45.58;;;7.57;;
22614;SDS011;11474;50.790;0.298;2023-03-23T02:46:23;45.47;;;7.93;;
22614;SDS011;11474;50.790;0.298;2023-03-23T02:48:50;50.35;;;7.65;;
22614;SDS011;11474;50.790;0.298;2023-03-23T02:51:19;54.20;;;8.43;;
22614;SDS011;11474;50.790;0.298;2023-03-23T02:53:46;54.10;;;8.05;;
22614;SDS011;11474;50.790;0.298;2023-03-23T02:56:14;61.43;;;8.40;;
22614;SDS011;11474;50.790;0.298;2023-03-23T02:58:40;58.47;;;7.53;;
22614;SDS011;11474;50.790;0.298;2023-03-23T03:01:14;48.63;;;7.07;;
22614;SDS011;11474;50.790;0.298;2023-03-23T03:03:42;35.97;;;6.47;;
22614;SDS011;11474;50.790;0.298;2023-03-23T03:06:10;39.92;;;5.90;;
22614;SDS011;11474;50.790;0.298;2023-03-23T03:08:50;39.95;;;7.03;;
22614;SDS011;11474;50.790;0.298;2023-03-23T03:11:19;37.97;;;5.80;;
22614;SDS011;11474;50.790;0.298;2023-03-23T03:14:01;27.25;;;4.88;;
22614;SDS011;11474;50.790;0.298;2023-03-23T03:16:31;28.60;;;5.78;;
22614;SDS011;11474;50.790;0.298;2023-03-23T03:19:06;36.22;;;6.40;;
22614;SDS011;11474;50.790;0.298;2023-03-23T03:21:34;37.97;;;6.10;;
22614;SDS011;11474;50.790;0.298;2023-03-23T03:24:01;38.63;;;5.97;;
22614;SDS011;11474;50.790;0.298;2023-03-23T03:26:29;29.75;;;6.20;;
22614;SDS011;11474;50.790;0.298;2023-03-23T03:28:56;39.50;;;5.53;;
22614;SDS011;11474;50.790;0.298;2023-03-23T03:31:24;39.70;;;6.07;;
22614;SDS011;11474;50.790;0.298;2023-03-23T03:33:52;37.60;;;6.35;;
22614;SDS011;11474;50.790;0.298;2023-03-23T03:36:19;46.10;;;6.75;;
22614;SDS011;11474;50.790;0.298;2023-03-23T03:38:47;34.13;;;5.93;;
22614;SDS011;11474;50.790;0.298;2023-03-23T03:41:14;37.00;;;5.97;;
22614;SDS011;11474;50.790;0.298;2023-03-23T03:43:40;44.90;;;6.72;;
22614;SDS011;11474;50.790;0.298;2023-03-23T03:46:06;39.53;;;6.30;;
22614;SDS011;11474;50.790;0.298;2023-03-23T03:48:33;52.22;;;7.13;;
22614;SDS011;11474;50.790;0.298;2023-03-23T03:50:59;51.40;;;8.33;;
22614;SDS011;11474;50.790;0.298;2023-03-23T03:53:27;58.35;;;8.10;;
22614;SDS011;11474;50.790;0.298;2023-03-23T03:55:53;58.90;;;9.25;;
22614;SDS011;11474;50.790;0.298;2023-03-23T03:58:25;64.32;;;8.90;;
22614;SDS011;11474;50.790;0.298;2023-03-23T04:00:56;61.63;;;8.88;;
22614;SDS011;11474;50.790;0.298;2023-03-23T04:03:23;64.07;;;9.55;;
22614;SDS011;11474;50.790;0.298;2023-03-23T04:05:50;53.67;;;8.63;;
22614;SDS011;11474;50.790;0.298;2023-03-23T04:08:17;74.15;;;9.70;;
22614;SDS011;11474;50.790;0.298;2023-03-23T04:10:43;72.05;;;10.63;;
22614;SDS011;11474;50.790;0.298;2023-03-23T04:13:10;54.47;;;9.13;;
22614;SDS011;11474;50.790;0.298;2023-03-23T04:15:36;56.60;;;9.70;;
22614;SDS011;11474;50.790;0.298;2023-03-23T04:18:04;49.67;;;7.55;;
22614;SDS011;11474;50.790;0.298;2023-03-23T04:20:31;53.03;;;8.00;;
22614;SDS011;11474;50.790;0.298;2023-03-23T04:22:57;50.80;;;8.35;;
22614;SDS011;11474;50.790;0.298;2023-03-23T04:25:25;49.05;;;7.68;;
22614;SDS011;11474;50.790;0.298;2023-03-23T04:27:52;60.35;;;9.30;;
22614;SDS011;11474;50.790;0.298;2023-03-23T04:30:22;61.10;;;9.80;;
22614;SDS011;11474;50.790;0.298;2023-03-23T04:32:50;69.15;;;9.82;;
22614;SDS011;11474;50.790;0.298;2023-03-23T04:35:18;55.53;;;9.30;;
22614;SDS011;11474;50.790;0.298;2023-03-23T04:37:44;55.85;;;8.35;;
22614;SDS011;11474;50.790;0.298;2023-03-23T04:40:11;57.15;;;8.85;;
22614;SDS011;11474;50.790;0.298;2023-03-23T04:42:39;64.55;;;10.05;;
22614;SDS011;11474;50.790;0.298;2023-03-23T04:45:06;64.10;;;8.53;;
22614;SDS011;11474;50.790;0.298;2023-03-23T04:47:34;63.63;;;9.15;;
22614;SDS011;11474;50.790;0.298;2023-03-23T04:50:06;72.05;;;9.35;;
22614;SDS011;11474;50.790;0.298;2023-03-23T04:52:33;52.22;;;8.45;;
22614;SDS011;11474;50.790;0.298;2023-03-23T04:54:59;58.10;;;8.60;;
22614;SDS011;11474;50.790;0.298;2023-03-23T04:57:25;68.07;;;8.57;;
22614;SDS011;11474;50.790;0.298;2023-03-23T04:59:53;65.60;;;9.77;;
22614;SDS011;11474;50.790;0.298;2023-03-23T05:02:19;56.30;;;8.73;;
22614;SDS011;11474;50.790;0.298;2023-03-23T05:04:45;54.60;;;9.52;;
22614;SDS011;11474;50.790;0.298;2023-03-23T05:07:11;57.45;;;8.40;;
22614;SDS011;11474;50.790;0.298;2023-03-23T05:09:37;59.08;;;7.82;;
22614;SDS011;11474;50.790;0.298;2023-03-23T05:12:04;51.08;;;7.65;;
22614;SDS011;11474;50.790;0.298;2023-03-23T05:14:30;55.50;;;7.85;;
22614;SDS011;11474;50.790;0.298;2023-03-23T05:16:57;62.30;;;9.18;;
22614;SDS011;11474;50.790;0.298;2023-03-23T05:19:23;53.40;;;8.77;;
22614;SDS011;11474;50.790;0.298;2023-03-23T05:21:49;54.97;;;8.40;;
22614;SDS011;11474;50.790;0.298;2023-03-23T05:24:15;55.50;;;8.15;;
22614;SDS011;11474;50.790;0.298;2023-03-23T05:26:41;57.17;;;7.82;;
22614;SDS011;11474;50.790;0.298;2023-03-23T05:29:07;58.50;;;8.77;;
22614;SDS011;11474;50.790;0.298;2023-03-23T05:31:33;59.92;;;8.88;;
22614;SDS011;11474;50.790;0.298;2023-03-23T05:33:59;58.53;;;8.63;;
22614;SDS011;11474;50.790;0.298;2023-03-23T05:36:25;60.20;;;8.18;;
22614;SDS011;11474;50.790;0.298;2023-03-23T05:38:51;50.30;;;7.33;;
22614;SDS011;11474;50.790;0.298;2023-03-23T05:41:17;51.53;;;7.43;;
22614;SDS011;11474;50.790;0.298;2023-03-23T05:43:43;54.67;;;8.32;;
22614;SDS011;11474;50.790;0.298;2023-03-23T05:46:09;48.42;;;8.07;;
22614;SDS011;11474;50.790;0.298;2023-03-23T05:48:35;52.92;;;8.73;;
22614;SDS011;11474;50.790;0.298;2023-03-23T05:51:02;45.72;;;6.82;;
22614;SDS011;11474;50.790;0.298;2023-03-23T05:53:28;48.07;;;7.97;;
22614;SDS011;11474;50.790;0.298;2023-03-23T05:55:59;44.10;;;7.65;;
22614;SDS011;11474;50.790;0.298;2023-03-23T05:58:25;44.63;;;6.63;;
22614;SDS011;11474;50.790;0.298;2023-03-23T06:00:51;54.00;;;7.73;;
22614;SDS011;11474;50.790;0.298;2023-03-23T06:03:17;42.95;;;6.90;;
22614;SDS011;11474;50.790;0.298;2023-03-23T06:05:44;46.53;;;6.60;;
22614;SDS011;11474;50.790;0.298;2023-03-23T06:08:11;40.42;;;6.65;;
22614;SDS011;11474;50.790;0.298;2023-03-23T06:10:37;49.60;;;6.80;;
22614;SDS011;11474;50.790;0.298;2023-03-23T06:13:04;39.90;;;6.27;;
22614;SDS011;11474;50.790;0.298;2023-03-23T06:15:31;45.17;;;6.37;;
22614;SDS011;11474;50.790;0.298;2023-03-23T06:18:01;42.38;;;6.63;;
22614;SDS011;11474;50.790;0.298;2023-03-23T06:20:27;40.47;;;6.82;;
22614;SDS011;11474;50.790;0.298;2023-03-23T06:22:54;42.38;;;7.20;;
22614;SDS011;11474;50.790;0.298;2023-03-23T06:25:21;41.20;;;6.95;;
22614;SDS011;11474;50.790;0.298;2023-03-23T06:27:48;42.43;;;6.80;;
22614;SDS011;11474;50.790;0.298;2023-03-23T06:30:14;36.72;;;6.22;;
22614;SDS011;11474;50.790;0.298;2023-03-23T06:32:40;40.08;;;6.85;;
22614;SDS011;11474;50.790;0.298;2023-03-23T06:35:08;35.70;;;6.25;;
22614;SDS011;11474;50.790;0.298;2023-03-23T06:37:35;37.93;;;6.73;;
22614;SDS011;11474;50.790;0.298;2023-03-23T06:40:02;44.43;;;6.70;;
22614;SDS011;11474;50.790;0.298;2023-03-23T06:42:35;45.55;;;6.75;;
22614;SDS011;11474;50.790;0.298;2023-03-23T06:45:02;49.20;;;6.53;;
22614;SDS011;11474;50.790;0.298;2023-03-23T06:47:28;38.67;;;6.32;;
22614;SDS011;11474;50.790;0.298;2023-03-23T06:49:55;41.65;;;6.40;;
22614;SDS011;11474;50.790;0.298;2023-03-23T06:52:21;51.13;;;7.50;;
22614;SDS011;11474;50.790;0.298;2023-03-23T06:54:48;45.47;;;7.32;;
22614;SDS011;11474;50.790;0.298;2023-03-23T06:57:14;54.30;;;6.75;;
22614;SDS011;11474;50.790;0.298;2023-03-23T06:59:41;44.35;;;8.90;;
22614;SDS011;11474;50.790;0.298;2023-03-23T07:02:08;48.10;;;8.23;;
22614;SDS011;11474;50.790;0.298;2023-03-23T07:04:34;45.85;;;7.13;;
22614;SDS011;11474;50.790;0.298;2023-03-23T07:07:01;44.90;;;7.25;;
22614;SDS011;11474;50.790;0.298;2023-03-23T07:09:27;45.35;;;7.88;;
22614;SDS011;11474;50.790;0.298;2023-03-23T07:11:53;39.88;;;6.68;;
22614;SDS011;11474;50.790;0.298;2023-03-23T07:14:19;45.17;;;7.03;;
22614;SDS011;11474;50.790;0.298;2023-03-23T07:16:47;44.08;;;6.68;;
22614;SDS011;11474;50.790;0.298;2023-03-23T07:19:13;43.15;;;6.70;;
22614;SDS011;11474;50.790;0.298;2023-03-23T07:21:40;36.75;;;6.53;;
22614;SDS011;11474;50.790;0.298;2023-03-23T07:24:06;47.27;;;7.07;;
22614;SDS011;11474;50.790;0.298;2023-03-23T07:26:36;36.22;;;6.38;;
22614;SDS011;11474;50.790;0.298;2023-03-23T07:29:02;45.60;;;7.43;;
22614;SDS011;11474;50.790;0.298;2023-03-23T07:31:28;41.85;;;7.65;;
22614;SDS011;11474;50.790;0.298;2023-03-23T07:33:55;46.53;;;7.20;;
22614;SDS011;11474;50.790;0.298;2023-03-23T07:36:21;45.53;;;7.18;;
22614;SDS011;11474;50.790;0.298;2023-03-23T07:38:47;41.07;;;6.47;;
22614;SDS011;11474;50.790;0.298;2023-03-23T07:41:14;44.88;;;6.57;;
22614;SDS011;11474;50.790;0.298;2023-03-23T07:43:40;38.85;;;6.85;;
22614;SDS011;11474;50.790;0.298;2023-03-23T07:46:06;44.63;;;7.15;;
22614;SDS011;11474;50.790;0.298;2023-03-23T07:48:32;46.22;;;6.95;;
22614;SDS011;11474;50.790;0.298;2023-03-23T07:50:58;35.05;;;7.05;;
22614;SDS011;11474;50.790;0.298;2023-03-23T07:53:25;38.22;;;6.13;;
22614;SDS011;11474;50.790;0.298;2023-03-23T07:55:51;38.33;;;6.15;;
22614;SDS011;11474;50.790;0.298;2023-03-23T07:58:18;40.95;;;6.65;;
22614;SDS011;11474;50.790;0.298;2023-03-23T08:00:45;38.72;;;6.68;;
22614;SDS011;11474;50.790;0.298;2023-03-23T08:03:13;39.47;;;7.05;;
22614;SDS011;11474;50.790;0.298;2023-03-23T08:05:40;42.28;;;9.30;;
22614;SDS011;11474;50.790;0.298;2023-03-23T08:08:07;37.90;;;5.72;;
22614;SDS011;11474;50.790;0.298;2023-03-23T08:10:33;35.65;;;6.50;;
22614;SDS011;11474;50.790;0.298;2023-03-23T08:13:00;38.88;;;5.78;;
22614;SDS011;11474;50.790;0.298;2023-03-23T08:15:26;38.13;;;5.88;;
22614;SDS011;11474;50.790;0.298;2023-03-23T08:17:53;31.90;;;5.80;;
22614;SDS011;11474;50.790;0.298;2023-03-23T08:20:20;37.33;;;5.37;;
22614;SDS011;11474;50.790;0.298;2023-03-23T08:22:53;35.75;;;5.43;;
22614;SDS011;11474;50.790;0.298;2023-03-23T08:25:20;34.22;;;4.90;;
22614;SDS011;11474;50.790;0.298;2023-03-23T08:27:47;38.42;;;5.50;;
22614;SDS011;11474;50.790;0.298;2023-03-23T08:30:14;37.33;;;5.97;;
22614;SDS011;11474;50.790;0.298;2023-03-23T08:32:41;32.45;;;6.53;;
22614;SDS011;11474;50.790;0.298;2023-03-23T08:35:08;30.00;;;5.63;;
22614;SDS011;11474;50.790;0.298;2023-03-23T08:37:35;33.53;;;5.90;;
22614;SDS011;11474;50.790;0.298;2023-03-23T08:40:01;28.35;;;5.72;;
22614;SDS011;11474;50.790;0.298;2023-03-23T08:42:35;36.75;;;6.43;;
22614;SDS011;11474;50.790;0.298;2023-03-23T08:45:03;35.78;;;5.53;;
22614;SDS011;11474;50.790;0.298;2023-03-23T08:47:29;32.00;;;5.57;;
22614;SDS011;11474;50.790;0.298;2023-03-23T08:49:56;29.80;;;5.72;;
22614;SDS011;11474;50.790;0.298;2023-03-23T08:52:22;35.53;;;5.90;;
22614;SDS011;11474;50.790;0.298;2023-03-23T08:54:48;37.38;;;6.07;;
22614;SDS011;11474;50.790;0.298;2023-03-23T08:57:14;32.28;;;5.28;;
22614;SDS011;11474;50.790;0.298;2023-03-23T08:59:41;30.38;;;5.25;;
22614;SDS011;11474;50.790;0.298;2023-03-23T09:02:10;38.03;;;6.00;;
22614;SDS011;11474;50.790;0.298;2023-03-23T09:04:37;29.55;;;5.20;;
22614;SDS011;11474;50.790;0.298;2023-03-23T09:07:04;32.88;;;5.75;;
22614;SDS011;11474;50.790;0.298;2023-03-23T09:09:31;39.50;;;6.45;;
22614;SDS011;11474;50.790;0.298;2023-03-23T09:11:59;37.37;;;6.00;;
22614;SDS011;11474;50.790;0.298;2023-03-23T09:14:25;39.45;;;6.70;;
22614;SDS011;11474;50.790;0.298;2023-03-23T09:16:51;33.65;;;5.78;;
22614;SDS011;11474;50.790;0.298;2023-03-23T09:19:17;36.90;;;5.63;;
22614;SDS011;11474;50.790;0.298;2023-03-23T09:21:45;34.80;;;6.70;;
22614;SDS011;11474;50.790;0.298;2023-03-23T09:24:11;36.80;;;5.97;;
22614;SDS011;11474;50.790;0.298;2023-03-23T09:26:37;35.47;;;6.10;;
22614;SDS011;11474;50.790;0.298;2023-03-23T09:29:03;29.58;;;5.50;;
22614;SDS011;11474;50.790;0.298;2023-03-23T09:31:30;38.50;;;6.00;;
22614;SDS011;11474;50.790;0.298;2023-03-23T09:33:57;35.17;;;6.00;;
22614;SDS011;11474;50.790;0.298;2023-03-23T09:36:24;32.33;;;5.60;;
22614;SDS011;11474;50.790;0.298;2023-03-23T09:38:56;34.17;;;5.60;;
22614;SDS011;11474;50.790;0.298;2023-03-23T09:43:59;40.70;;;6.63;;
22614;SDS011;11474;50.790;0.298;2023-03-23T09:46:41;33.78;;;5.68;;
22614;SDS011;11474;50.790;0.298;2023-03-23T09:49:10;42.45;;;6.63;;
22614;SDS011;11474;50.790;0.298;2023-03-23T09:54:10;41.17;;;6.57;;
22614;SDS011;11474;50.790;0.298;2023-03-23T09:56:38;33.38;;;6.38;;
22614;SDS011;11474;50.790;0.298;2023-03-23T09:59:08;33.92;;;6.25;;
22614;SDS011;11474;50.790;0.298;2023-03-23T10:01:43;44.67;;;6.85;;
22614;SDS011;11474;50.790;0.298;2023-03-23T10:04:12;37.05;;;6.65;;
22614;SDS011;11474;50.790;0.298;2023-03-23T10:06:40;37.07;;;6.37;;
22614;SDS011;11474;50.790;0.298;2023-03-23T10:09:08;35.22;;;6.70;;
22614;SDS011;11474;50.790;0.298;2023-03-23T10:14:27;40.53;;;6.45;;
22614;SDS011;11474;50.790;0.298;2023-03-23T10:19:39;35.22;;;6.38;;
22614;SDS011;11474;50.790;0.298;2023-03-23T10:22:10;38.72;;;6.43;;
22614;SDS011;11474;50.790;0.298;2023-03-23T10:24:46;40.42;;;7.43;;
22614;SDS011;11474;50.790;0.298;2023-03-23T10:29:43;44.57;;;7.57;;
22614;SDS011;11474;50.790;0.298;2023-03-23T10:32:11;40.47;;;7.22;;
22614;SDS011;11474;50.790;0.298;2023-03-23T10:37:27;44.33;;;7.30;;
22614;SDS011;11474;50.790;0.298;2023-03-23T10:39:56;43.10;;;6.43;;
22614;SDS011;11474;50.790;0.298;2023-03-23T10:44:53;43.65;;;7.53;;
22614;SDS011;11474;50.790;0.298;2023-03-23T10:47:19;34.77;;;7.87;;
22614;SDS011;11474;50.790;0.298;2023-03-23T10:49:56;40.92;;;7.72;;
22614;SDS011;11474;50.790;0.298;2023-03-23T10:55:02;39.50;;;7.88;;
22614;SDS011;11474;50.790;0.298;2023-03-23T10:57:30;38.70;;;7.70;;
22614;SDS011;11474;50.790;0.298;2023-03-23T11:00:07;45.40;;;7.82;;
22614;SDS011;11474;50.790;0.298;2023-03-23T11:02:44;47.70;;;7.57;;
22614;SDS011;11474;50.790;0.298;2023-03-23T11:05:23;43.03;;;7.35;;
22614;SDS011;11474;50.790;0.298;2023-03-23T11:07:50;40.15;;;8.20;;
22614;SDS011;11474;50.790;0.298;2023-03-23T11:10:22;44.63;;;8.40;;
22614;SDS011;11474;50.790;0.298;2023-03-23T11:12:49;42.10;;;7.22;;
22614;SDS011;11474;50.790;0.298;2023-03-23T11:15:24;36.53;;;6.70;;
22614;SDS011;11474;50.790;0.298;2023-03-23T11:17:57;33.37;;;6.73;;
22614;SDS011;11474;50.790;0.298;2023-03-23T11:20:23;37.83;;;7.38;;
22614;SDS011;11474;50.790;0.298;2023-03-23T11:22:50;42.45;;;7.93;;
22614;SDS011;11474;50.790;0.298;2023-03-23T11:25:16;37.88;;;6.85;;
22614;SDS011;11474;50.790;0.298;2023-03-23T11:27:42;38.85;;;7.05;;
22614;SDS011;11474;50.790;0.298;2023-03-23T11:32:34;39.60;;;7.63;;
22614;SDS011;11474;50.790;0.298;2023-03-23T11:35:03;37.80;;;6.63;;
22614;SDS011;11474;50.790;0.298;2023-03-23T11:37:32;40.60;;;6.83;;
22614;SDS011;11474;50.790;0.298;2023-03-23T11:40:13;47.30;;;7.43;;
22614;SDS011;11474;50.790;0.298;2023-03-23T11:43:14;41.85;;;6.82;;
22614;SDS011;11474;50.790;0.298;2023-03-23T11:45:50;36.75;;;7.10;;
22614;SDS011;11474;50.790;0.298;2023-03-23T11:56:04;42.42;;;7.18;;
22614;SDS011;11474;50.790;0.298;2023-03-23T11:58:31;32.15;;;6.60;;
22614;SDS011;11474;50.790;0.298;2023-03-23T12:06:01;41.08;;;8.98;;
22614;SDS011;11474;50.790;0.298;2023-03-23T12:17:29;41.30;;;7.47;;
22614;SDS011;11474;50.790;0.298;2023-03-23T12:30:27;54.92;;;8.32;;
22614;SDS011;11474;50.790;0.298;2023-03-23T12:48:40;42.20;;;8.25;;
22614;SDS011;11474;50.790;0.298;2023-03-23T12:51:20;44.45;;;8.00;;
22614;SDS011;11474;50.790;0.298;2023-03-23T12:53:56;43.95;;;7.75;;
22614;SDS011;11474;50.790;0.298;2023-03-23T12:56:25;48.40;;;7.67;;
22614;SDS011;11474;50.790;0.298;2023-03-23T12:58:56;42.33;;;7.07;;
22614;SDS011;11474;50.790;0.298;2023-03-23T13:01:25;42.15;;;6.65;;
22614;SDS011;11474;50.790;0.298;2023-03-23T13:04:00;37.58;;;7.22;;
22614;SDS011;11474;50.790;0.298;2023-03-23T13:06:35;37.47;;;5.07;;
22614;SDS011;11474;50.790;0.298;2023-03-23T13:11:37;24.98;;;4.25;;
22614;SDS011;11474;50.790;0.298;2023-03-23T13:19:57;16.13;;;3.50;;
22614;SDS011;11474;50.790;0.298;2023-03-23T13:24:56;29.35;;;5.15;;
22614;SDS011;11474;50.790;0.298;2023-03-23T13:27:24;37.38;;;6.30;;
22614;SDS011;11474;50.790;0.298;2023-03-23T13:29:53;41.58;;;7.05;;
22614;SDS011;11474;50.790;0.298;2023-03-23T13:32:20;41.72;;;6.72;;
22614;SDS011;11474;50.790;0.298;2023-03-23T13:34:47;41.83;;;7.40;;
22614;SDS011;11474;50.790;0.298;2023-03-23T13:37:21;49.85;;;7.32;;
22614;SDS011;11474;50.790;0.298;2023-03-23T13:39:50;51.97;;;7.75;;
22614;SDS011;11474;50.790;0.298;2023-03-23T13:42:52;64.35;;;15.50;;
22614;SDS011;11474;50.790;0.298;2023-03-23T13:45:21;54.17;;;8.43;;
22614;SDS011;11474;50.790;0.298;2023-03-23T13:47:49;53.33;;;8.93;;
22614;SDS011;11474;50.790;0.298;2023-03-23T13:57:54;49.03;;;8.05;;
22614;SDS011;11474;50.790;0.298;2023-03-23T14:02:51;54.85;;;8.30;;
22614;SDS011;11474;50.790;0.298;2023-03-23T14:07:51;57.58;;;8.82;;
22614;SDS011;11474;50.790;0.298;2023-03-23T14:10:18;45.80;;;7.45;;
22614;SDS011;11474;50.790;0.298;2023-03-23T14:12:45;52.28;;;8.93;;
22614;SDS011;11474;50.790;0.298;2023-03-23T14:15:12;50.10;;;8.00;;
22614;SDS011;11474;50.790;0.298;2023-03-23T14:17:42;53.63;;;8.07;;
22614;SDS011;11474;50.790;0.298;2023-03-23T14:20:15;44.83;;;7.87;;
22614;SDS011;11474;50.790;0.298;2023-03-23T14:22:45;51.97;;;7.72;;
22614;SDS011;11474;50.790;0.298;2023-03-23T14:25:16;46.13;;;7.50;;
22614;SDS011;11474;50.790;0.298;2023-03-23T14:27:42;59.83;;;8.60;;
22614;SDS011;11474;50.790;0.298;2023-03-23T14:30:20;53.58;;;8.15;;
22614;SDS011;11474;50.790;0.298;2023-03-23T14:32:47;43.72;;;7.40;;
22614;SDS011;11474;50.790;0.298;2023-03-23T14:35:22;43.33;;;7.80;;
22614;SDS011;11474;50.790;0.298;2023-03-23T14:37:49;42.25;;;7.82;;
22614;SDS011;11474;50.790;0.298;2023-03-23T14:40:16;49.80;;;7.13;;
22614;SDS011;11474;50.790;0.298;2023-03-23T14:42:42;44.58;;;7.05;;
22614;SDS011;11474;50.790;0.298;2023-03-23T14:45:18;41.05;;;7.47;;
22614;SDS011;11474;50.790;0.298;2023-03-23T14:47:46;41.58;;;7.70;;
22614;SDS011;11474;50.790;0.298;2023-03-23T14:52:52;44.28;;;7.90;;
22614;SDS011;11474;50.790;0.298;2023-03-23T14:55:19;37.03;;;8.00;;
22614;SDS011;11474;50.790;0.298;2023-03-23T14:57:46;56.13;;;8.25;;
22614;SDS011;11474;50.790;0.298;2023-03-23T15:00:16;49.77;;;8.37;;
22614;SDS011;11474;50.790;0.298;2023-03-23T15:02:44;49.88;;;8.65;;
22614;SDS011;11474;50.790;0.298;2023-03-23T15:05:13;51.13;;;7.70;;
22614;SDS011;11474;50.790;0.298;2023-03-23T15:07:41;42.90;;;7.65;;
22614;SDS011;11474;50.790;0.298;2023-03-23T15:10:09;46.67;;;6.80;;
22614;SDS011;11474;50.790;0.298;2023-03-23T15:12:39;43.03;;;7.47;;
22614;SDS011;11474;50.790;0.298;2023-03-23T15:15:16;41.30;;;7.25;;
22614;SDS011;11474;50.790;0.298;2023-03-23T15:17:45;41.78;;;6.95;;
22614;SDS011;11474;50.790;0.298;2023-03-23T15:20:20;39.50;;;6.90;;
22614;SDS011;11474;50.790;0.298;2023-03-23T15:22:47;33.80;;;6.32;;
22614;SDS011;11474;50.790;0.298;2023-03-23T15:27:44;43.53;;;6.95;;
22614;SDS011;11474;50.790;0.298;2023-03-23T15:33:00;37.58;;;6.20;;
22614;SDS011;11474;50.790;0.298;2023-03-23T15:35:27;45.72;;;7.03;;
22614;SDS011;11474;50.790;0.298;2023-03-23T15:37:59;44.63;;;6.93;;
22614;SDS011;11474;50.790;0.298;2023-03-23T15:40:26;42.43;;;6.83;;
22614;SDS011;11474;50.790;0.298;2023-03-23T15:45:34;49.43;;;8.00;;
22614;SDS011;11474;50.790;0.298;2023-03-23T15:48:08;49.10;;;7.15;;
22614;SDS011;11474;50.790;0.298;2023-03-23T15:50:36;55.72;;;8.07;;
22614;SDS011;11474;50.790;0.298;2023-03-23T15:53:15;57.53;;;7.57;;
22614;SDS011;11474;50.790;0.298;2023-03-23T15:55:41;56.53;;;8.25;;
22614;SDS011;11474;50.790;0.298;2023-03-23T15:58:09;58.83;;;8.30;;
22614;SDS011;11474;50.790;0.298;2023-03-23T16:00:35;68.07;;;9.25;;
22614;SDS011;11474;50.790;0.298;2023-03-23T16:03:04;54.92;;;8.38;;
22614;SDS011;11474;50.790;0.298;2023-03-23T16:05:30;58.10;;;8.50;;
22614;SDS011;11474;50.790;0.298;2023-03-23T16:07:57;56.20;;;8.18;;
22614;SDS011;11474;50.790;0.298;2023-03-23T16:10:23;52.20;;;8.23;;
22614;SDS011;11474;50.790;0.298;2023-03-23T16:12:50;56.85;;;8.15;;
22614;SDS011;11474;50.790;0.298;2023-03-23T16:15:16;47.25;;;7.38;;
22614;SDS011;11474;50.790;0.298;2023-03-23T16:17:43;55.28;;;8.18;;
22614;SDS011;11474;50.790;0.298;2023-03-23T16:20:14;43.03;;;7.20;;
22614;SDS011;11474;50.790;0.298;2023-03-23T16:22:41;43.53;;;7.03;;
22614;SDS011;11474;50.790;0.298;2023-03-23T16:25:08;38.27;;;6.30;;
22614;SDS011;11474;50.790;0.298;2023-03-23T16:27:34;40.05;;;6.18;;
22614;SDS011;11474;50.790;0.298;2023-03-23T16:30:01;36.95;;;6.18;;
22614;SDS011;11474;50.790;0.298;2023-03-23T16:32:28;29.13;;;5.35;;
22614;SDS011;11474;50.790;0.298;2023-03-23T16:34:55;34.77;;;5.80;;
22614;SDS011;11474;50.790;0.298;2023-03-23T16:37:21;29.13;;;5.32;;
22614;SDS011;11474;50.790;0.298;2023-03-23T16:39:47;29.27;;;5.13;;
22614;SDS011;11474;50.790;0.298;2023-03-23T16:42:13;36.13;;;6.32;;
22614;SDS011;11474;50.790;0.298;2023-03-23T16:44:39;38.33;;;5.82;;